sensor_id;sensor_type;location;lat;lon;timestamp;P1;durP1;ratioP1;P2;durP2;ratioP2
54452;SDS011;40363;52.270;10.546;2024-01-16T00:02:13;3.25;;;1.15;;
54452;SDS011;40363;52.270;10.546;2024-01-16T00:04:40;4.40;;;1.55;;
54452;SDS011;40363;52.270;10.546;2024-01-16T00:07:06;3.08;;;1.17;;
54452;SDS011;40363;52.270;10.546;2024-01-16T00:09:34;3.83;;;1.50;;
54452;SDS011;40363;52.270;10.546;2024-01-16T00:12:01;7.25;;;2.17;;
54452;SDS011;40363;52.270;10.546;2024-01-16T00:14:28;1.33;;;1.23;;
54452;SDS011;40363;52.270;10.546;2024-01-16T00:16:55;1.92;;;1.08;;
54452;SDS011;40363;52.270;10.546;2024-01-16T00:19:22;1.20;;;0.80;;
54452;SDS011;40363;52.270;10.546;2024-01-16T00:21:48;4.95;;;1.13;;
54452;SDS011;40363;52.270;10.546;2024-01-16T00:24:16;5.32;;;1.27;;
54452;SDS011;40363;52.270;10.546;2024-01-16T00:26:44;5.45;;;1.25;;
54452;SDS011;40363;52.270;10.546;2024-01-16T00:29:11;1.48;;;0.70;;
54452;SDS011;40363;52.270;10.546;2024-01-16T00:31:38;3.78;;;1.13;;
54452;SDS011;40363;52.270;10.546;2024-01-16T00:34:05;3.53;;;1.10;;
54452;SDS011;40363;52.270;10.546;2024-01-16T00:36:32;3.60;;;1.63;;
54452;SDS011;40363;52.270;10.546;2024-01-16T00:38:59;1.02;;;0.68;;
54452;SDS011;40363;52.270;10.546;2024-01-16T00:41:25;4.32;;;1.17;;
54452;SDS011;40363;52.270;10.546;2024-01-16T00:43:54;8.13;;;1.42;;
54452;SDS011;40363;52.270;10.546;2024-01-16T00:46:21;0.85;;;0.77;;
54452;SDS011;40363;52.270;10.546;2024-01-16T00:48:47;1.85;;;1.08;;
54452;SDS011;40363;52.270;10.546;2024-01-16T00:51:14;2.10;;;0.90;;
54452;SDS011;40363;52.270;10.546;2024-01-16T00:53:41;0.93;;;0.75;;
54452;SDS011;40363;52.270;10.546;2024-01-16T00:56:08;2.53;;;1.15;;
54452;SDS011;40363;52.270;10.546;2024-01-16T00:58:35;3.05;;;1.08;;
54452;SDS011;40363;52.270;10.546;2024-01-16T01:01:04;1.75;;;1.25;;
54452;SDS011;40363;52.270;10.546;2024-01-16T01:03:31;11.18;;;1.67;;
54452;SDS011;40363;52.270;10.546;2024-01-16T01:05:57;3.60;;;0.90;;
54452;SDS011;40363;52.270;10.546;2024-01-16T01:08:25;2.50;;;0.77;;
54452;SDS011;40363;52.270;10.546;2024-01-16T01:10:52;3.75;;;0.85;;
54452;SDS011;40363;52.270;10.546;2024-01-16T01:13:19;6.75;;;1.27;;
54452;SDS011;40363;52.270;10.546;2024-01-16T01:15:45;3.17;;;0.90;;
54452;SDS011;40363;52.270;10.546;2024-01-16T01:18:13;5.30;;;1.50;;
54452;SDS011;40363;52.270;10.546;2024-01-16T01:20:40;1.98;;;1.15;;
54452;SDS011;40363;52.270;10.546;2024-01-16T01:23:06;1.90;;;1.30;;
54452;SDS011;40363;52.270;10.546;2024-01-16T01:25:33;1.20;;;0.80;;
54452;SDS011;40363;52.270;10.546;2024-01-16T01:27:59;2.50;;;0.70;;
54452;SDS011;40363;52.270;10.546;2024-01-16T01:30:26;3.63;;;0.88;;
54452;SDS011;40363;52.270;10.546;2024-01-16T01:32:53;3.92;;;1.40;;
54452;SDS011;40363;52.270;10.546;2024-01-16T01:35:20;2.25;;;1.10;;
54452;SDS011;40363;52.270;10.546;2024-01-16T01:37:47;1.83;;;0.90;;
54452;SDS011;40363;52.270;10.546;2024-01-16T01:40:14;1.75;;;0.90;;
54452;SDS011;40363;52.270;10.546;2024-01-16T01:42:41;3.28;;;1.00;;
54452;SDS011;40363;52.270;10.546;2024-01-16T01:45:08;0.75;;;0.55;;
54452;SDS011;40363;52.270;10.546;2024-01-16T01:47:35;1.50;;;1.33;;
54452;SDS011;40363;52.270;10.546;2024-01-16T01:50:02;0.75;;;0.50;;
54452;SDS011;40363;52.270;10.546;2024-01-16T01:52:31;0.70;;;0.70;;
54452;SDS011;40363;52.270;10.546;2024-01-16T01:54:58;4.05;;;1.27;;
54452;SDS011;40363;52.270;10.546;2024-01-16T01:57:25;2.70;;;0.75;;
54452;SDS011;40363;52.270;10.546;2024-01-16T01:59:52;0.90;;;0.90;;
54452;SDS011;40363;52.270;10.546;2024-01-16T02:02:18;0.73;;;0.70;;
54452;SDS011;40363;52.270;10.546;2024-01-16T02:04:47;0.68;;;0.47;;
54452;SDS011;40363;52.270;10.546;2024-01-16T02:07:14;1.63;;;0.60;;
54452;SDS011;40363;52.270;10.546;2024-01-16T02:09:42;0.82;;;0.73;;
54452;SDS011;40363;52.270;10.546;2024-01-16T02:12:09;4.20;;;0.70;;
54452;SDS011;40363;52.270;10.546;2024-01-16T02:14:36;1.77;;;0.52;;
54452;SDS011;40363;52.270;10.546;2024-01-16T02:17:03;2.22;;;0.75;;
54452;SDS011;40363;52.270;10.546;2024-01-16T02:19:31;0.73;;;0.43;;
54452;SDS011;40363;52.270;10.546;2024-01-16T02:21:59;3.33;;;0.68;;
54452;SDS011;40363;52.270;10.546;2024-01-16T02:24:27;3.20;;;0.63;;
54452;SDS011;40363;52.270;10.546;2024-01-16T02:26:54;2.58;;;0.80;;
54452;SDS011;40363;52.270;10.546;2024-01-16T02:29:21;4.18;;;1.35;;
54452;SDS011;40363;52.270;10.546;2024-01-16T02:31:47;1.27;;;0.70;;
54452;SDS011;40363;52.270;10.546;2024-01-16T02:34:14;2.13;;;0.63;;
54452;SDS011;40363;52.270;10.546;2024-01-16T02:36:40;1.60;;;0.88;;
54452;SDS011;40363;52.270;10.546;2024-01-16T02:39:07;3.40;;;1.20;;
54452;SDS011;40363;52.270;10.546;2024-01-16T02:41:36;1.40;;;0.82;;
54452;SDS011;40363;52.270;10.546;2024-01-16T02:44:02;2.10;;;0.80;;
54452;SDS011;40363;52.270;10.546;2024-01-16T02:46:29;1.83;;;0.80;;
54452;SDS011;40363;52.270;10.546;2024-01-16T02:48:57;3.72;;;0.75;;
54452;SDS011;40363;52.270;10.546;2024-01-16T02:51:24;4.28;;;0.77;;
54452;SDS011;40363;52.270;10.546;2024-01-16T02:53:51;1.63;;;0.70;;
54452;SDS011;40363;52.270;10.546;2024-01-16T02:56:17;2.25;;;0.70;;
54452;SDS011;40363;52.270;10.546;2024-01-16T02:58:45;1.55;;;0.85;;
54452;SDS011;40363;52.270;10.546;2024-01-16T03:01:12;1.88;;;0.93;;
54452;SDS011;40363;52.270;10.546;2024-01-16T03:03:40;4.18;;;0.85;;
54452;SDS011;40363;52.270;10.546;2024-01-16T03:06:06;1.27;;;0.70;;
54452;SDS011;40363;52.270;10.546;2024-01-16T03:08:33;2.67;;;0.95;;
54452;SDS011;40363;52.270;10.546;2024-01-16T03:10:59;0.80;;;0.60;;
54452;SDS011;40363;52.270;10.546;2024-01-16T03:13:26;3.63;;;0.95;;
54452;SDS011;40363;52.270;10.546;2024-01-16T03:15:54;5.65;;;1.63;;
54452;SDS011;40363;52.270;10.546;2024-01-16T03:18:21;6.78;;;1.20;;
54452;SDS011;40363;52.270;10.546;2024-01-16T03:20:47;1.95;;;1.23;;
54452;SDS011;40363;52.270;10.546;2024-01-16T03:23:14;2.67;;;0.70;;
54452;SDS011;40363;52.270;10.546;2024-01-16T03:25:40;9.40;;;0.75;;
54452;SDS011;40363;52.270;10.546;2024-01-16T03:28:07;2.90;;;1.30;;
54452;SDS011;40363;52.270;10.546;2024-01-16T03:30:35;2.97;;;0.85;;
54452;SDS011;40363;52.270;10.546;2024-01-16T03:33:04;3.60;;;1.00;;
54452;SDS011;40363;52.270;10.546;2024-01-16T03:35:31;8.63;;;1.58;;
54452;SDS011;40363;52.270;10.546;2024-01-16T03:37:57;0.80;;;0.45;;
54452;SDS011;40363;52.270;10.546;2024-01-16T03:40:24;0.50;;;0.43;;
54452;SDS011;40363;52.270;10.546;2024-01-16T03:42:50;1.40;;;0.85;;
54452;SDS011;40363;52.270;10.546;2024-01-16T03:45:17;2.25;;;0.50;;
54452;SDS011;40363;52.270;10.546;2024-01-16T03:47:44;1.77;;;1.13;;
54452;SDS011;40363;52.270;10.546;2024-01-16T03:50:12;0.57;;;0.50;;
54452;SDS011;40363;52.270;10.546;2024-01-16T03:52:39;1.90;;;0.70;;
54452;SDS011;40363;52.270;10.546;2024-01-16T03:55:06;2.28;;;0.88;;
54452;SDS011;40363;52.270;10.546;2024-01-16T03:57:32;7.07;;;0.70;;
54452;SDS011;40363;52.270;10.546;2024-01-16T03:59:59;2.38;;;0.95;;
54452;SDS011;40363;52.270;10.546;2024-01-16T04:02:26;2.28;;;0.60;;
54452;SDS011;40363;52.270;10.546;2024-01-16T04:04:52;4.18;;;1.05;;
54452;SDS011;40363;52.270;10.546;2024-01-16T04:07:20;1.15;;;0.63;;
54452;SDS011;40363;52.270;10.546;2024-01-16T04:09:48;5.72;;;0.77;;
54452;SDS011;40363;52.270;10.546;2024-01-16T04:12:15;1.33;;;0.70;;
54452;SDS011;40363;52.270;10.546;2024-01-16T04:14:42;1.27;;;0.80;;
54452;SDS011;40363;52.270;10.546;2024-01-16T04:17:08;1.23;;;0.70;;
54452;SDS011;40363;52.270;10.546;2024-01-16T04:19:35;1.50;;;0.55;;
54452;SDS011;40363;52.270;10.546;2024-01-16T04:22:01;4.97;;;0.70;;
54452;SDS011;40363;52.270;10.546;2024-01-16T04:24:31;2.17;;;0.93;;
54452;SDS011;40363;52.270;10.546;2024-01-16T04:26:57;5.18;;;0.93;;
54452;SDS011;40363;52.270;10.546;2024-01-16T04:29:24;4.72;;;0.73;;
54452;SDS011;40363;52.270;10.546;2024-01-16T04:31:51;7.13;;;0.93;;
54452;SDS011;40363;52.270;10.546;2024-01-16T04:34:18;3.90;;;1.10;;
54452;SDS011;40363;52.270;10.546;2024-01-16T04:36:44;1.25;;;1.15;;
54452;SDS011;40363;52.270;10.546;2024-01-16T04:39:11;3.53;;;1.27;;
54452;SDS011;40363;52.270;10.546;2024-01-16T04:41:40;1.77;;;1.05;;
54452;SDS011;40363;52.270;10.546;2024-01-16T04:44:06;7.68;;;1.40;;
54452;SDS011;40363;52.270;10.546;2024-01-16T04:46:33;3.72;;;1.33;;
54452;SDS011;40363;52.270;10.546;2024-01-16T04:48:59;2.97;;;1.15;;
54452;SDS011;40363;52.270;10.546;2024-01-16T04:51:27;7.43;;;1.42;;
54452;SDS011;40363;52.270;10.546;2024-01-16T04:53:53;2.58;;;1.15;;
54452;SDS011;40363;52.270;10.546;2024-01-16T04:56:20;1.73;;;0.80;;
54452;SDS011;40363;52.270;10.546;2024-01-16T04:58:48;8.23;;;1.25;;
54452;SDS011;40363;52.270;10.546;2024-01-16T05:01:15;1.00;;;0.80;;
54452;SDS011;40363;52.270;10.546;2024-01-16T05:03:41;1.67;;;0.95;;
54452;SDS011;40363;52.270;10.546;2024-01-16T05:06:11;1.95;;;1.02;;
54452;SDS011;40363;52.270;10.546;2024-01-16T05:08:39;2.92;;;0.98;;
54452;SDS011;40363;52.270;10.546;2024-01-16T05:11:06;5.18;;;1.17;;
54452;SDS011;40363;52.270;10.546;2024-01-16T05:13:32;1.35;;;1.02;;
54452;SDS011;40363;52.270;10.546;2024-01-16T05:16:00;4.90;;;0.82;;
54452;SDS011;40363;52.270;10.546;2024-01-16T05:18:27;3.72;;;0.73;;
54452;SDS011;40363;52.270;10.546;2024-01-16T05:20:54;6.93;;;1.13;;
54452;SDS011;40363;52.270;10.546;2024-01-16T05:23:21;9.00;;;1.38;;
54452;SDS011;40363;52.270;10.546;2024-01-16T05:25:47;6.93;;;1.40;;
54452;SDS011;40363;52.270;10.546;2024-01-16T05:28:14;5.63;;;1.02;;
54452;SDS011;40363;52.270;10.546;2024-01-16T05:30:41;2.75;;;0.80;;
54452;SDS011;40363;52.270;10.546;2024-01-16T05:33:09;5.13;;;0.80;;
54452;SDS011;40363;52.270;10.546;2024-01-16T05:35:35;2.38;;;1.00;;
54452;SDS011;40363;52.270;10.546;2024-01-16T05:38:02;1.83;;;0.77;;
54452;SDS011;40363;52.270;10.546;2024-01-16T05:40:29;6.63;;;1.00;;
54452;SDS011;40363;52.270;10.546;2024-01-16T05:42:56;2.30;;;1.05;;
54452;SDS011;40363;52.270;10.546;2024-01-16T05:45:23;0.65;;;0.63;;
54452;SDS011;40363;52.270;10.546;2024-01-16T05:47:49;3.55;;;1.65;;
54452;SDS011;40363;52.270;10.546;2024-01-16T05:50:17;3.50;;;1.63;;
54452;SDS011;40363;52.270;10.546;2024-01-16T05:52:44;5.10;;;1.30;;
54452;SDS011;40363;52.270;10.546;2024-01-16T05:55:10;1.88;;;1.30;;
54452;SDS011;40363;52.270;10.546;2024-01-16T05:57:37;2.85;;;0.95;;
54452;SDS011;40363;52.270;10.546;2024-01-16T06:00:04;4.18;;;1.15;;
54452;SDS011;40363;52.270;10.546;2024-01-16T06:02:31;4.22;;;1.95;;
54452;SDS011;40363;52.270;10.546;2024-01-16T06:04:58;2.63;;;1.77;;
54452;SDS011;40363;52.270;10.546;2024-01-16T06:07:26;5.43;;;1.05;;
54452;SDS011;40363;52.270;10.546;2024-01-16T06:09:53;4.38;;;1.38;;
54452;SDS011;40363;52.270;10.546;2024-01-16T06:12:19;10.07;;;1.63;;
54452;SDS011;40363;52.270;10.546;2024-01-16T06:14:45;10.75;;;1.70;;
54452;SDS011;40363;52.270;10.546;2024-01-16T06:17:12;3.97;;;1.13;;
54452;SDS011;40363;52.270;10.546;2024-01-16T06:19:38;4.85;;;1.60;;
54452;SDS011;40363;52.270;10.546;2024-01-16T06:22:05;6.65;;;1.67;;
54452;SDS011;40363;52.270;10.546;2024-01-16T06:24:35;1.10;;;0.68;;
54452;SDS011;40363;52.270;10.546;2024-01-16T06:27:03;1.75;;;0.90;;
54452;SDS011;40363;52.270;10.546;2024-01-16T06:29:31;3.45;;;1.27;;
54452;SDS011;40363;52.270;10.546;2024-01-16T06:31:58;7.50;;;1.08;;
54452;SDS011;40363;52.270;10.546;2024-01-16T06:34:25;4.55;;;1.42;;
54452;SDS011;40363;52.270;10.546;2024-01-16T06:36:51;4.20;;;1.65;;
54452;SDS011;40363;52.270;10.546;2024-01-16T06:39:18;7.38;;;1.42;;
54452;SDS011;40363;52.270;10.546;2024-01-16T06:41:46;5.18;;;1.35;;
54452;SDS011;40363;52.270;10.546;2024-01-16T06:44:13;4.47;;;1.60;;
54452;SDS011;40363;52.270;10.546;2024-01-16T06:46:39;3.55;;;1.13;;
54452;SDS011;40363;52.270;10.546;2024-01-16T06:49:06;2.92;;;1.55;;
54452;SDS011;40363;52.270;10.546;2024-01-16T06:51:33;3.80;;;1.85;;
54452;SDS011;40363;52.270;10.546;2024-01-16T06:53:59;4.20;;;1.38;;
54452;SDS011;40363;52.270;10.546;2024-01-16T06:56:26;3.03;;;1.48;;
54452;SDS011;40363;52.270;10.546;2024-01-16T06:58:54;6.55;;;1.83;;
54452;SDS011;40363;52.270;10.546;2024-01-16T07:01:20;3.67;;;1.55;;
54452;SDS011;40363;52.270;10.546;2024-01-16T07:03:48;3.83;;;1.50;;
54452;SDS011;40363;52.270;10.546;2024-01-16T07:06:14;1.73;;;1.20;;
54452;SDS011;40363;52.270;10.546;2024-01-16T07:08:41;5.07;;;1.70;;
54452;SDS011;40363;52.270;10.546;2024-01-16T07:11:08;1.98;;;1.52;;
54452;SDS011;40363;52.270;10.546;2024-01-16T07:13:38;20.35;;;2.35;;
54452;SDS011;40363;52.270;10.546;2024-01-16T07:16:06;3.53;;;1.92;;
54452;SDS011;40363;52.270;10.546;2024-01-16T07:18:35;2.10;;;1.13;;
54452;SDS011;40363;52.270;10.546;2024-01-16T07:21:01;4.40;;;1.65;;
54452;SDS011;40363;52.270;10.546;2024-01-16T07:23:29;3.92;;;1.30;;
54452;SDS011;40363;52.270;10.546;2024-01-16T07:25:55;4.60;;;1.08;;
54452;SDS011;40363;52.270;10.546;2024-01-16T07:28:22;8.23;;;1.52;;
54452;SDS011;40363;52.270;10.546;2024-01-16T07:30:49;7.13;;;1.10;;
54452;SDS011;40363;52.270;10.546;2024-01-16T07:33:16;6.50;;;1.67;;
54452;SDS011;40363;52.270;10.546;2024-01-16T07:35:43;6.60;;;1.25;;
54452;SDS011;40363;52.270;10.546;2024-01-16T07:38:12;6.13;;;1.70;;
54452;SDS011;40363;52.270;10.546;2024-01-16T07:40:39;5.78;;;1.50;;
54452;SDS011;40363;52.270;10.546;2024-01-16T07:43:06;1.95;;;1.52;;
54452;SDS011;40363;52.270;10.546;2024-01-16T07:45:32;2.15;;;1.35;;
54452;SDS011;40363;52.270;10.546;2024-01-16T07:47:59;4.97;;;1.48;;
54452;SDS011;40363;52.270;10.546;2024-01-16T07:50:27;2.45;;;1.50;;
54452;SDS011;40363;52.270;10.546;2024-01-16T07:52:53;3.60;;;1.48;;
54452;SDS011;40363;52.270;10.546;2024-01-16T07:55:20;3.08;;;1.85;;
54452;SDS011;40363;52.270;10.546;2024-01-16T07:57:47;5.93;;;2.08;;
54452;SDS011;40363;52.270;10.546;2024-01-16T08:00:13;3.67;;;1.40;;
54452;SDS011;40363;52.270;10.546;2024-01-16T08:02:40;10.43;;;2.67;;
54452;SDS011;40363;52.270;10.546;2024-01-16T08:05:07;8.50;;;2.00;;
54452;SDS011;40363;52.270;10.546;2024-01-16T08:07:35;7.10;;;2.47;;
54452;SDS011;40363;52.270;10.546;2024-01-16T08:10:02;8.38;;;2.75;;
54452;SDS011;40363;52.270;10.546;2024-01-16T08:12:29;9.20;;;3.42;;
54452;SDS011;40363;52.270;10.546;2024-01-16T08:14:55;10.18;;;2.55;;
54452;SDS011;40363;52.270;10.546;2024-01-16T08:17:22;8.85;;;2.72;;
54452;SDS011;40363;52.270;10.546;2024-01-16T08:19:48;5.28;;;2.33;;
54452;SDS011;40363;52.270;10.546;2024-01-16T08:22:15;6.43;;;2.33;;
54452;SDS011;40363;52.270;10.546;2024-01-16T08:24:43;5.60;;;2.15;;
54452;SDS011;40363;52.270;10.546;2024-01-16T08:27:09;5.28;;;2.25;;
54452;SDS011;40363;52.270;10.546;2024-01-16T08:29:36;8.07;;;2.00;;
54452;SDS011;40363;52.270;10.546;2024-01-16T08:32:03;5.75;;;2.75;;
54452;SDS011;40363;52.270;10.546;2024-01-16T08:34:30;3.30;;;1.67;;
54452;SDS011;40363;52.270;10.546;2024-01-16T08:36:56;3.35;;;1.67;;
54452;SDS011;40363;52.270;10.546;2024-01-16T08:39:23;4.15;;;1.85;;
54452;SDS011;40363;52.270;10.546;2024-01-16T08:41:51;4.60;;;1.98;;
54452;SDS011;40363;52.270;10.546;2024-01-16T08:44:18;5.28;;;1.52;;
54452;SDS011;40363;52.270;10.546;2024-01-16T08:46:44;3.38;;;2.15;;
54452;SDS011;40363;52.270;10.546;2024-01-16T08:49:11;2.80;;;1.50;;
54452;SDS011;40363;52.270;10.546;2024-01-16T08:51:39;3.45;;;2.53;;
54452;SDS011;40363;52.270;10.546;2024-01-16T08:54:06;6.28;;;1.75;;
54452;SDS011;40363;52.270;10.546;2024-01-16T08:56:33;5.95;;;3.13;;
54452;SDS011;40363;52.270;10.546;2024-01-16T08:59:00;4.30;;;1.88;;
54452;SDS011;40363;52.270;10.546;2024-01-16T09:01:27;5.90;;;1.58;;
54452;SDS011;40363;52.270;10.546;2024-01-16T09:03:54;5.72;;;1.83;;
54452;SDS011;40363;52.270;10.546;2024-01-16T09:06:20;7.18;;;1.88;;
54452;SDS011;40363;52.270;10.546;2024-01-16T09:08:47;2.60;;;1.65;;
54452;SDS011;40363;52.270;10.546;2024-01-16T09:11:13;6.03;;;1.65;;
54452;SDS011;40363;52.270;10.546;2024-01-16T09:13:40;5.60;;;2.60;;
54452;SDS011;40363;52.270;10.546;2024-01-16T09:16:08;3.47;;;1.38;;
54452;SDS011;40363;52.270;10.546;2024-01-16T09:18:34;2.50;;;1.20;;
54452;SDS011;40363;52.270;10.546;2024-01-16T09:21:01;4.95;;;1.90;;
54452;SDS011;40363;52.270;10.546;2024-01-16T09:23:27;5.03;;;1.90;;
54452;SDS011;40363;52.270;10.546;2024-01-16T09:25:55;3.05;;;1.77;;
54452;SDS011;40363;52.270;10.546;2024-01-16T09:28:21;5.40;;;1.77;;
54452;SDS011;40363;52.270;10.546;2024-01-16T09:30:49;12.65;;;2.25;;
54452;SDS011;40363;52.270;10.546;2024-01-16T09:33:17;8.85;;;1.88;;
54452;SDS011;40363;52.270;10.546;2024-01-16T09:35:44;5.30;;;1.80;;
54452;SDS011;40363;52.270;10.546;2024-01-16T09:38:11;2.90;;;1.60;;
54452;SDS011;40363;52.270;10.546;2024-01-16T09:40:38;5.00;;;1.52;;
54452;SDS011;40363;52.270;10.546;2024-01-16T09:43:05;4.30;;;1.63;;
54452;SDS011;40363;52.270;10.546;2024-01-16T09:45:33;5.40;;;1.60;;
54452;SDS011;40363;52.270;10.546;2024-01-16T09:48:04;2.95;;;1.58;;
54452;SDS011;40363;52.270;10.546;2024-01-16T09:50:34;2.28;;;1.27;;
54452;SDS011;40363;52.270;10.546;2024-01-16T09:53:01;7.97;;;2.40;;
54452;SDS011;40363;52.270;10.546;2024-01-16T09:55:28;14.20;;;1.77;;
54452;SDS011;40363;52.270;10.546;2024-01-16T09:57:55;6.35;;;1.85;;
54452;SDS011;40363;52.270;10.546;2024-01-16T10:00:22;1.83;;;1.55;;
54452;SDS011;40363;52.270;10.546;2024-01-16T10:02:50;3.97;;;1.58;;
54452;SDS011;40363;52.270;10.546;2024-01-16T10:05:23;4.97;;;2.30;;
54452;SDS011;40363;52.270;10.546;2024-01-16T10:07:51;5.20;;;2.22;;
54452;SDS011;40363;52.270;10.546;2024-01-16T10:10:18;6.40;;;2.05;;
54452;SDS011;40363;52.270;10.546;2024-01-16T10:12:46;6.03;;;1.60;;
54452;SDS011;40363;52.270;10.546;2024-01-16T10:15:13;3.40;;;1.85;;
54452;SDS011;40363;52.270;10.546;2024-01-16T10:17:41;9.68;;;2.08;;
54452;SDS011;40363;52.270;10.546;2024-01-16T10:20:09;6.20;;;1.92;;
54452;SDS011;40363;52.270;10.546;2024-01-16T10:22:38;6.88;;;2.33;;
54452;SDS011;40363;52.270;10.546;2024-01-16T10:25:07;5.80;;;1.88;;
54452;SDS011;40363;52.270;10.546;2024-01-16T10:27:37;6.53;;;2.10;;
54452;SDS011;40363;52.270;10.546;2024-01-16T10:30:05;3.15;;;1.55;;
54452;SDS011;40363;52.270;10.546;2024-01-16T10:32:33;4.55;;;2.50;;
54452;SDS011;40363;52.270;10.546;2024-01-16T10:35:01;3.20;;;2.00;;
54452;SDS011;40363;52.270;10.546;2024-01-16T10:37:30;4.80;;;1.85;;
54452;SDS011;40363;52.270;10.546;2024-01-16T10:39:57;6.65;;;1.63;;
54452;SDS011;40363;52.270;10.546;2024-01-16T10:42:25;5.60;;;2.03;;
54452;SDS011;40363;52.270;10.546;2024-01-16T10:44:54;6.68;;;2.58;;
54452;SDS011;40363;52.270;10.546;2024-01-16T10:47:21;3.60;;;1.75;;
54452;SDS011;40363;52.270;10.546;2024-01-16T10:49:48;6.78;;;2.50;;
54452;SDS011;40363;52.270;10.546;2024-01-16T10:52:15;4.40;;;2.03;;
54452;SDS011;40363;52.270;10.546;2024-01-16T10:54:44;6.30;;;2.08;;
54452;SDS011;40363;52.270;10.546;2024-01-16T10:57:14;3.60;;;1.70;;
54452;SDS011;40363;52.270;10.546;2024-01-16T10:59:45;6.07;;;2.72;;
54452;SDS011;40363;52.270;10.546;2024-01-16T11:02:16;6.97;;;2.22;;
54452;SDS011;40363;52.270;10.546;2024-01-16T11:04:47;10.20;;;2.55;;
54452;SDS011;40363;52.270;10.546;2024-01-16T11:07:14;3.92;;;2.58;;
54452;SDS011;40363;52.270;10.546;2024-01-16T11:09:42;4.97;;;2.10;;
54452;SDS011;40363;52.270;10.546;2024-01-16T11:12:10;8.50;;;2.83;;
54452;SDS011;40363;52.270;10.546;2024-01-16T11:14:41;6.10;;;2.10;;
54452;SDS011;40363;52.270;10.546;2024-01-16T11:17:11;4.85;;;2.08;;
54452;SDS011;40363;52.270;10.546;2024-01-16T11:19:43;4.05;;;2.47;;
54452;SDS011;40363;52.270;10.546;2024-01-16T11:22:11;6.10;;;2.90;;
54452;SDS011;40363;52.270;10.546;2024-01-16T11:24:38;6.40;;;2.75;;
54452;SDS011;40363;52.270;10.546;2024-01-16T11:27:05;4.78;;;2.30;;
54452;SDS011;40363;52.270;10.546;2024-01-16T11:29:34;3.47;;;2.67;;
54452;SDS011;40363;52.270;10.546;2024-01-16T11:32:04;6.10;;;2.38;;
54452;SDS011;40363;52.270;10.546;2024-01-16T11:37:24;2.45;;;1.70;;
54452;SDS011;40363;52.270;10.546;2024-01-16T11:42:48;8.35;;;3.03;;
54452;SDS011;40363;52.270;10.546;2024-01-16T11:48:18;5.95;;;2.17;;
54452;SDS011;40363;52.270;10.546;2024-01-16T11:50:46;6.90;;;2.72;;
54452;SDS011;40363;52.270;10.546;2024-01-16T11:53:32;5.40;;;2.50;;
54452;SDS011;40363;52.270;10.546;2024-01-16T11:59:01;6.38;;;2.17;;
54452;SDS011;40363;52.270;10.546;2024-01-16T12:01:40;4.28;;;2.08;;
54452;SDS011;40363;52.270;10.546;2024-01-16T12:04:13;6.50;;;2.83;;
54452;SDS011;40363;52.270;10.546;2024-01-16T12:06:43;5.93;;;1.70;;
54452;SDS011;40363;52.270;10.546;2024-01-16T12:09:12;4.40;;;2.03;;
54452;SDS011;40363;52.270;10.546;2024-01-16T12:11:40;6.07;;;1.77;;
54452;SDS011;40363;52.270;10.546;2024-01-16T12:14:08;3.88;;;2.10;;
54452;SDS011;40363;52.270;10.546;2024-01-16T12:16:35;3.45;;;1.85;;
54452;SDS011;40363;52.270;10.546;2024-01-16T12:19:06;4.35;;;2.15;;
54452;SDS011;40363;52.270;10.546;2024-01-16T12:21:35;6.88;;;2.10;;
54452;SDS011;40363;52.270;10.546;2024-01-16T12:24:05;3.25;;;1.85;;
54452;SDS011;40363;52.270;10.546;2024-01-16T12:26:32;5.40;;;1.77;;
54452;SDS011;40363;52.270;10.546;2024-01-16T12:28:58;6.38;;;2.08;;
54452;SDS011;40363;52.270;10.546;2024-01-16T12:31:26;6.35;;;2.05;;
54452;SDS011;40363;52.270;10.546;2024-01-16T12:33:54;6.40;;;2.55;;
54452;SDS011;40363;52.270;10.546;2024-01-16T12:36:30;6.57;;;2.28;;
54452;SDS011;40363;52.270;10.546;2024-01-16T12:38:58;3.53;;;1.92;;
54452;SDS011;40363;52.270;10.546;2024-01-16T12:41:25;4.63;;;1.83;;
54452;SDS011;40363;52.270;10.546;2024-01-16T12:43:54;3.67;;;2.03;;
54452;SDS011;40363;52.270;10.546;2024-01-16T12:46:21;4.88;;;2.28;;
54452;SDS011;40363;52.270;10.546;2024-01-16T12:48:47;6.50;;;2.35;;
54452;SDS011;40363;52.270;10.546;2024-01-16T12:51:20;5.10;;;2.53;;
54452;SDS011;40363;52.270;10.546;2024-01-16T12:53:47;6.85;;;2.33;;
54452;SDS011;40363;52.270;10.546;2024-01-16T12:56:17;4.60;;;1.70;;
54452;SDS011;40363;52.270;10.546;2024-01-16T12:58:45;4.38;;;2.10;;
54452;SDS011;40363;52.270;10.546;2024-01-16T13:01:21;3.47;;;1.92;;
54452;SDS011;40363;52.270;10.546;2024-01-16T13:03:50;4.55;;;2.35;;
54452;SDS011;40363;52.270;10.546;2024-01-16T13:06:17;4.63;;;2.22;;
54452;SDS011;40363;52.270;10.546;2024-01-16T13:08:45;8.15;;;2.47;;
54452;SDS011;40363;52.270;10.546;2024-01-16T13:11:12;4.75;;;2.65;;
54452;SDS011;40363;52.270;10.546;2024-01-16T13:13:42;6.93;;;2.78;;
54452;SDS011;40363;52.270;10.546;2024-01-16T13:16:08;4.50;;;2.33;;
54452;SDS011;40363;52.270;10.546;2024-01-16T13:18:36;8.93;;;3.33;;
54452;SDS011;40363;52.270;10.546;2024-01-16T13:21:03;6.07;;;2.83;;
54452;SDS011;40363;52.270;10.546;2024-01-16T13:23:30;6.00;;;2.47;;
54452;SDS011;40363;52.270;10.546;2024-01-16T13:25:57;5.78;;;2.97;;
54452;SDS011;40363;52.270;10.546;2024-01-16T13:28:25;6.97;;;3.45;;
54452;SDS011;40363;52.270;10.546;2024-01-16T13:30:53;7.63;;;4.28;;
54452;SDS011;40363;52.270;10.546;2024-01-16T13:33:22;8.82;;;4.13;;
54452;SDS011;40363;52.270;10.546;2024-01-16T13:35:49;6.55;;;3.88;;
54452;SDS011;40363;52.270;10.546;2024-01-16T13:38:17;11.00;;;3.17;;
54452;SDS011;40363;52.270;10.546;2024-01-16T13:40:44;8.23;;;4.53;;
54452;SDS011;40363;52.270;10.546;2024-01-16T13:43:11;8.20;;;4.22;;
54452;SDS011;40363;52.270;10.546;2024-01-16T13:45:38;11.27;;;4.50;;
54452;SDS011;40363;52.270;10.546;2024-01-16T13:48:08;11.25;;;4.63;;
54452;SDS011;40363;52.270;10.546;2024-01-16T13:50:34;12.32;;;5.60;;
54452;SDS011;40363;52.270;10.546;2024-01-16T13:53:02;10.52;;;5.13;;
54452;SDS011;40363;52.270;10.546;2024-01-16T13:55:29;12.27;;;5.43;;
54452;SDS011;40363;52.270;10.546;2024-01-16T13:57:57;8.70;;;5.68;;
54452;SDS011;40363;52.270;10.546;2024-01-16T14:00:23;9.32;;;4.68;;
54452;SDS011;40363;52.270;10.546;2024-01-16T14:02:50;10.45;;;5.57;;
54452;SDS011;40363;52.270;10.546;2024-01-16T14:05:19;12.05;;;5.38;;
54452;SDS011;40363;52.270;10.546;2024-01-16T14:07:46;10.43;;;5.57;;
54452;SDS011;40363;52.270;10.546;2024-01-16T14:10:16;9.80;;;6.32;;
54452;SDS011;40363;52.270;10.546;2024-01-16T14:12:44;9.02;;;5.40;;
54452;SDS011;40363;52.270;10.546;2024-01-16T14:15:11;9.80;;;6.05;;
54452;SDS011;40363;52.270;10.546;2024-01-16T14:17:44;17.48;;;6.47;;
54452;SDS011;40363;52.270;10.546;2024-01-16T14:20:12;8.82;;;5.35;;
54452;SDS011;40363;52.270;10.546;2024-01-16T14:22:41;17.25;;;7.20;;
54452;SDS011;40363;52.270;10.546;2024-01-16T14:25:08;12.25;;;6.82;;
54452;SDS011;40363;52.270;10.546;2024-01-16T14:27:37;9.85;;;5.80;;
54452;SDS011;40363;52.270;10.546;2024-01-16T14:30:06;13.07;;;7.03;;
54452;SDS011;40363;52.270;10.546;2024-01-16T14:32:35;13.60;;;7.20;;
54452;SDS011;40363;52.270;10.546;2024-01-16T14:35:03;14.95;;;7.35;;
54452;SDS011;40363;52.270;10.546;2024-01-16T14:37:30;16.10;;;7.97;;
54452;SDS011;40363;52.270;10.546;2024-01-16T14:39:58;13.25;;;8.32;;
54452;SDS011;40363;52.270;10.546;2024-01-16T14:42:26;15.98;;;7.05;;
54452;SDS011;40363;52.270;10.546;2024-01-16T14:44:54;14.75;;;7.03;;
54452;SDS011;40363;52.270;10.546;2024-01-16T14:47:21;8.55;;;5.50;;